Decoded Metar for LYUZ (UZICE PONIKVE in SERBIA) (IATA:N/A) | Meteo·Mobile Aviation Weather
aviador You're here:

LYUZ Decoded Metar

UZICE PONIKVE in SERBIA
Report Time2019-11-16 01:30:00
UTC Time2019-11-16 01:37:45
Flight Rules vfr VFR
WindVRB at 05 kt
Visibility9999 m
Phenomena:N/A
Clouds:N/A
Expected CloudBase > 3,600 ft AGL from Temp-Dew spread
CeilingNone
Temp13°C (ISA +4)
Dew Point04°C (55% RH)
AAT9.9°C
QNH1016 hPa
Density Alt3,501 ft
Elevation3,012 ft
Report Wrong Elevation
Raw Report
METAR LYUZ 160130Z AUTO VRB05KT CAVOK 13/04 Q1016=

Extra information for LYUZ:More info

Metar Taf Metar & Taf Last 4 Metars F.Rules Stats Wind Profile Meteogram Temp Stats Airport Information Weather charts Add Link Nearby VenuesMetar ALERT Operation Metar Decoded Social comments